Radcliff, Ohio
Current Conditions -  °F | °C
As of 9:55 PM on Thursday 18 Dec 2014 (Local Time) from KUNI Reporting Station
Overcast Overcast  
Wind Chill: 28°   Ceiling: 2400
Heat Index: 28°   Visibility: 10mi
Dew Point: 22°   Wind: 0mph
Humidity: 76%   Direction: NA
Pressure: 30.21"   Gusts: NA
Location:  39.1198°N, 82.3705°W
Report Text: KUNI 190255Z AUTO 00000KT 10SM BKN024 OVC070 M02/M06 A3021 RMK AO2 T10201058
Loading
Personal Weather Stations






























Interactive Weather Map New forecast layout! Learn more

10-Day Weather Forecast

Advertisements
Track Severe Weather on mobile